sensor_id;sensor_type;location;lat;lon;timestamp;temperature;humidity
51839;DHT22;37886;53.174;6.368;2023-01-28T00:00:06;2.10;99.90
51839;DHT22;37886;53.174;6.368;2023-01-28T00:02:33;2.20;99.90
51839;DHT22;37886;53.174;6.368;2023-01-28T00:04:59;2.20;99.90
51839;DHT22;37886;53.174;6.368;2023-01-28T00:07:25;2.10;99.90
51839;DHT22;37886;53.174;6.368;2023-01-28T00:09:50;2.10;99.90
51839;DHT22;37886;53.174;6.368;2023-01-28T00:12:16;2.10;99.90
51839;DHT22;37886;53.174;6.368;2023-01-28T00:14:42;2.10;99.90
51839;DHT22;37886;53.174;6.368;2023-01-28T00:17:08;2.20;99.90
51839;DHT22;37886;53.174;6.368;2023-01-28T00:19:33;2.20;99.90
51839;DHT22;37886;53.174;6.368;2023-01-28T00:21:59;2.10;99.90
51839;DHT22;37886;53.174;6.368;2023-01-28T00:24:25;2.10;99.90
51839;DHT22;37886;53.174;6.368;2023-01-28T00:26:50;2.10;99.90
51839;DHT22;37886;53.174;6.368;2023-01-28T00:29:16;2.10;99.90
51839;DHT22;37886;53.174;6.368;2023-01-28T00:31:42;2.10;99.90
51839;DHT22;37886;53.174;6.368;2023-01-28T00:34:08;2.20;99.90
51839;DHT22;37886;53.174;6.368;2023-01-28T00:36:34;2.20;99.90
51839;DHT22;37886;53.174;6.368;2023-01-28T00:39:04;2.10;99.90
51839;DHT22;37886;53.174;6.368;2023-01-28T00:41:30;2.00;99.90
51839;DHT22;37886;53.174;6.368;2023-01-28T00:43:56;2.00;99.90
51839;DHT22;37886;53.174;6.368;2023-01-28T00:46:23;2.00;99.90
51839;DHT22;37886;53.174;6.368;2023-01-28T00:48:51;2.00;99.90
51839;DHT22;37886;53.174;6.368;2023-01-28T00:51:18;2.10;99.90
51839;DHT22;37886;53.174;6.368;2023-01-28T00:53:44;2.10;99.90
51839;DHT22;37886;53.174;6.368;2023-01-28T00:56:12;2.10;99.90
51839;DHT22;37886;53.174;6.368;2023-01-28T00:58:39;2.10;99.90
51839;DHT22;37886;53.174;6.368;2023-01-28T01:01:13;2.10;99.90
51839;DHT22;37886;53.174;6.368;2023-01-28T01:03:39;2.10;99.90
51839;DHT22;37886;53.174;6.368;2023-01-28T01:06:06;2.10;99.90
51839;DHT22;37886;53.174;6.368;2023-01-28T01:08:32;2.00;99.90
51839;DHT22;37886;53.174;6.368;2023-01-28T01:11:05;2.00;99.90
51839;DHT22;37886;53.174;6.368;2023-01-28T01:13:32;2.00;99.90
51839;DHT22;37886;53.174;6.368;2023-01-28T01:18:32;2.00;99.90
51839;DHT22;37886;53.174;6.368;2023-01-28T01:20:59;2.00;99.90
51839;DHT22;37886;53.174;6.368;2023-01-28T01:23:29;2.00;99.90
51839;DHT22;37886;53.174;6.368;2023-01-28T01:25:55;2.00;99.90
51839;DHT22;37886;53.174;6.368;2023-01-28T01:28:21;2.00;99.90
51839;DHT22;37886;53.174;6.368;2023-01-28T01:30:48;2.00;99.90
51839;DHT22;37886;53.174;6.368;2023-01-28T01:33:14;2.00;99.90
51839;DHT22;37886;53.174;6.368;2023-01-28T01:35:40;2.10;99.90
51839;DHT22;37886;53.174;6.368;2023-01-28T01:38:06;2.10;99.90
51839;DHT22;37886;53.174;6.368;2023-01-28T01:40:32;2.00;99.90
51839;DHT22;37886;53.174;6.368;2023-01-28T01:42:58;2.10;99.90
51839;DHT22;37886;53.174;6.368;2023-01-28T01:45:24;2.00;99.90
51839;DHT22;37886;53.174;6.368;2023-01-28T01:47:56;2.00;99.90
51839;DHT22;37886;53.174;6.368;2023-01-28T01:50:35;2.00;99.90
51839;DHT22;37886;53.174;6.368;2023-01-28T01:53:10;2.00;99.90
51839;DHT22;37886;53.174;6.368;2023-01-28T01:55:40;2.00;99.90
51839;DHT22;37886;53.174;6.368;2023-01-28T01:58:10;2.00;99.90
51839;DHT22;37886;53.174;6.368;2023-01-28T02:00:37;2.00;99.90
51839;DHT22;37886;53.174;6.368;2023-01-28T02:03:03;2.00;99.90
51839;DHT22;37886;53.174;6.368;2023-01-28T02:05:29;2.00;99.90
51839;DHT22;37886;53.174;6.368;2023-01-28T02:07:56;2.00;99.90
51839;DHT22;37886;53.174;6.368;2023-01-28T02:10:43;1.90;99.90
51839;DHT22;37886;53.174;6.368;2023-01-28T02:13:09;1.90;99.90
51839;DHT22;37886;53.174;6.368;2023-01-28T02:15:35;2.00;99.90
51839;DHT22;37886;53.174;6.368;2023-01-28T02:18:01;2.00;99.90
51839;DHT22;37886;53.174;6.368;2023-01-28T02:20:58;2.00;99.90
51839;DHT22;37886;53.174;6.368;2023-01-28T02:26:39;1.90;99.90
51839;DHT22;37886;53.174;6.368;2023-01-28T02:29:16;1.80;99.90
51839;DHT22;37886;53.174;6.368;2023-01-28T02:31:48;1.90;99.90
51839;DHT22;37886;53.174;6.368;2023-01-28T02:34:23;1.90;99.90
51839;DHT22;37886;53.174;6.368;2023-01-28T02:37:00;1.90;99.90
51839;DHT22;37886;53.174;6.368;2023-01-28T02:39:31;1.80;99.90
51839;DHT22;37886;53.174;6.368;2023-01-28T02:42:00;1.80;99.90
51839;DHT22;37886;53.174;6.368;2023-01-28T02:44:28;1.70;99.90
51839;DHT22;37886;53.174;6.368;2023-01-28T02:46:53;1.80;99.90
51839;DHT22;37886;53.174;6.368;2023-01-28T02:49:45;1.80;99.90
51839;DHT22;37886;53.174;6.368;2023-01-28T02:58:26;1.90;99.90
51839;DHT22;37886;53.174;6.368;2023-01-28T03:01:22;1.90;99.90
51839;DHT22;37886;53.174;6.368;2023-01-28T03:04:19;1.80;99.90
51839;DHT22;37886;53.174;6.368;2023-01-28T03:06:49;1.80;99.90
51839;DHT22;37886;53.174;6.368;2023-01-28T03:09:19;1.80;99.90
51839;DHT22;37886;53.174;6.368;2023-01-28T03:12:11;1.80;99.90
51839;DHT22;37886;53.174;6.368;2023-01-28T03:15:01;1.80;99.90
51839;DHT22;37886;53.174;6.368;2023-01-28T03:20:54;1.80;99.90
51839;DHT22;37886;53.174;6.368;2023-01-28T03:24:07;1.80;99.90
51839;DHT22;37886;53.174;6.368;2023-01-28T03:27:09;1.80;99.90
51839;DHT22;37886;53.174;6.368;2023-01-28T03:29:58;1.90;99.90
51839;DHT22;37886;53.174;6.368;2023-01-28T03:32:43;1.90;99.90
51839;DHT22;37886;53.174;6.368;2023-01-28T03:35:30;1.90;99.90
51839;DHT22;37886;53.174;6.368;2023-01-28T03:38:17;1.80;99.90
51839;DHT22;37886;53.174;6.368;2023-01-28T03:40:57;1.80;99.90
51839;DHT22;37886;53.174;6.368;2023-01-28T03:43:24;1.70;99.90
51839;DHT22;37886;53.174;6.368;2023-01-28T03:45:50;1.80;99.90
51839;DHT22;37886;53.174;6.368;2023-01-28T03:48:20;1.80;99.90
51839;DHT22;37886;53.174;6.368;2023-01-28T03:50:46;1.80;99.90
51839;DHT22;37886;53.174;6.368;2023-01-28T03:53:13;1.90;99.90
51839;DHT22;37886;53.174;6.368;2023-01-28T03:55:41;1.80;99.90
51839;DHT22;37886;53.174;6.368;2023-01-28T03:58:08;1.80;99.90
51839;DHT22;37886;53.174;6.368;2023-01-28T04:00:33;1.70;99.90
51839;DHT22;37886;53.174;6.368;2023-01-28T04:03:03;1.70;99.90
51839;DHT22;37886;53.174;6.368;2023-01-28T04:05:29;1.70;99.90
51839;DHT22;37886;53.174;6.368;2023-01-28T04:07:55;1.70;99.90
51839;DHT22;37886;53.174;6.368;2023-01-28T04:10:21;1.70;99.90
51839;DHT22;37886;53.174;6.368;2023-01-28T04:12:47;1.70;99.90
51839;DHT22;37886;53.174;6.368;2023-01-28T04:15:15;1.70;99.90
51839;DHT22;37886;53.174;6.368;2023-01-28T04:17:45;1.60;99.90
51839;DHT22;37886;53.174;6.368;2023-01-28T04:20:12;1.70;99.90
51839;DHT22;37886;53.174;6.368;2023-01-28T04:22:38;1.60;99.90
51839;DHT22;37886;53.174;6.368;2023-01-28T04:25:04;1.60;99.90
51839;DHT22;37886;53.174;6.368;2023-01-28T04:27:29;1.60;99.90
51839;DHT22;37886;53.174;6.368;2023-01-28T04:29:55;1.60;99.90
51839;DHT22;37886;53.174;6.368;2023-01-28T04:32:21;1.60;99.90
51839;DHT22;37886;53.174;6.368;2023-01-28T04:34:46;1.60;99.90
51839;DHT22;37886;53.174;6.368;2023-01-28T04:37:12;1.60;99.90
51839;DHT22;37886;53.174;6.368;2023-01-28T04:39:37;1.60;99.90
51839;DHT22;37886;53.174;6.368;2023-01-28T04:42:03;1.60;99.90
51839;DHT22;37886;53.174;6.368;2023-01-28T04:44:29;1.50;99.90
51839;DHT22;37886;53.174;6.368;2023-01-28T04:46:55;1.50;99.90
51839;DHT22;37886;53.174;6.368;2023-01-28T04:49:20;1.50;99.90
51839;DHT22;37886;53.174;6.368;2023-01-28T04:51:46;1.50;99.90
51839;DHT22;37886;53.174;6.368;2023-01-28T04:54:12;1.60;99.90
51839;DHT22;37886;53.174;6.368;2023-01-28T04:56:37;1.60;99.90
51839;DHT22;37886;53.174;6.368;2023-01-28T04:59:03;1.60;99.90
51839;DHT22;37886;53.174;6.368;2023-01-28T05:01:29;1.60;99.90
51839;DHT22;37886;53.174;6.368;2023-01-28T05:03:54;1.60;99.90
51839;DHT22;37886;53.174;6.368;2023-01-28T05:06:20;1.50;99.90
51839;DHT22;37886;53.174;6.368;2023-01-28T05:08:46;1.50;99.90
51839;DHT22;37886;53.174;6.368;2023-01-28T05:11:12;1.50;99.90
51839;DHT22;37886;53.174;6.368;2023-01-28T05:13:38;1.60;99.90
51839;DHT22;37886;53.174;6.368;2023-01-28T05:16:04;1.50;99.90
51839;DHT22;37886;53.174;6.368;2023-01-28T05:18:30;1.60;99.90
51839;DHT22;37886;53.174;6.368;2023-01-28T05:20:56;1.60;99.90
51839;DHT22;37886;53.174;6.368;2023-01-28T05:23:22;1.60;99.90
51839;DHT22;37886;53.174;6.368;2023-01-28T05:25:48;1.50;99.90
51839;DHT22;37886;53.174;6.368;2023-01-28T05:28:15;1.50;99.90
51839;DHT22;37886;53.174;6.368;2023-01-28T05:30:41;1.50;99.90
51839;DHT22;37886;53.174;6.368;2023-01-28T05:33:06;1.50;99.90
51839;DHT22;37886;53.174;6.368;2023-01-28T05:35:32;1.50;99.90
51839;DHT22;37886;53.174;6.368;2023-01-28T05:37:58;1.50;99.90
51839;DHT22;37886;53.174;6.368;2023-01-28T05:40:24;1.50;99.90
51839;DHT22;37886;53.174;6.368;2023-01-28T05:42:50;1.50;99.90
51839;DHT22;37886;53.174;6.368;2023-01-28T05:45:15;1.50;99.90
51839;DHT22;37886;53.174;6.368;2023-01-28T05:47:41;1.50;99.90
51839;DHT22;37886;53.174;6.368;2023-01-28T05:50:07;1.50;99.90
51839;DHT22;37886;53.174;6.368;2023-01-28T05:52:33;1.50;99.90
51839;DHT22;37886;53.174;6.368;2023-01-28T05:54:59;1.50;99.90
51839;DHT22;37886;53.174;6.368;2023-01-28T05:57:26;1.50;99.90
51839;DHT22;37886;53.174;6.368;2023-01-28T05:59:51;1.50;99.90
51839;DHT22;37886;53.174;6.368;2023-01-28T06:02:17;1.50;99.90
51839;DHT22;37886;53.174;6.368;2023-01-28T06:04:43;1.50;99.90
51839;DHT22;37886;53.174;6.368;2023-01-28T06:07:08;1.50;99.90
51839;DHT22;37886;53.174;6.368;2023-01-28T06:09:34;1.50;99.90
51839;DHT22;37886;53.174;6.368;2023-01-28T06:12:00;1.50;99.90
51839;DHT22;37886;53.174;6.368;2023-01-28T06:14:26;1.50;99.90
51839;DHT22;37886;53.174;6.368;2023-01-28T06:16:51;1.50;99.90
51839;DHT22;37886;53.174;6.368;2023-01-28T06:19:17;1.50;99.90
51839;DHT22;37886;53.174;6.368;2023-01-28T06:21:43;1.50;99.90
51839;DHT22;37886;53.174;6.368;2023-01-28T06:24:08;1.50;99.90
51839;DHT22;37886;53.174;6.368;2023-01-28T06:26:34;1.50;99.90
51839;DHT22;37886;53.174;6.368;2023-01-28T06:29:00;1.50;99.90
51839;DHT22;37886;53.174;6.368;2023-01-28T06:31:25;1.60;99.90
51839;DHT22;37886;53.174;6.368;2023-01-28T06:33:51;1.50;99.90
51839;DHT22;37886;53.174;6.368;2023-01-28T06:36:17;1.50;99.90
51839;DHT22;37886;53.174;6.368;2023-01-28T06:38:43;1.50;99.90
51839;DHT22;37886;53.174;6.368;2023-01-28T06:41:08;1.50;99.90
51839;DHT22;37886;53.174;6.368;2023-01-28T06:43:34;1.50;99.90
51839;DHT22;37886;53.174;6.368;2023-01-28T06:46:00;1.50;99.90
51839;DHT22;37886;53.174;6.368;2023-01-28T06:48:26;1.40;99.90
51839;DHT22;37886;53.174;6.368;2023-01-28T06:50:52;1.40;99.90
51839;DHT22;37886;53.174;6.368;2023-01-28T06:53:18;1.40;99.90
51839;DHT22;37886;53.174;6.368;2023-01-28T06:55:44;1.40;99.90
51839;DHT22;37886;53.174;6.368;2023-01-28T06:58:10;1.40;99.90
51839;DHT22;37886;53.174;6.368;2023-01-28T07:00:36;1.40;99.90
51839;DHT22;37886;53.174;6.368;2023-01-28T07:03:03;1.40;99.90
51839;DHT22;37886;53.174;6.368;2023-01-28T07:05:29;1.40;99.90
51839;DHT22;37886;53.174;6.368;2023-01-28T07:07:54;1.40;99.90
51839;DHT22;37886;53.174;6.368;2023-01-28T07:10:20;1.40;99.90
51839;DHT22;37886;53.174;6.368;2023-01-28T07:12:46;1.40;99.90
51839;DHT22;37886;53.174;6.368;2023-01-28T07:15:12;1.30;99.90
51839;DHT22;37886;53.174;6.368;2023-01-28T07:17:43;1.30;99.90
51839;DHT22;37886;53.174;6.368;2023-01-28T07:20:11;1.20;99.90
51839;DHT22;37886;53.174;6.368;2023-01-28T07:22:39;1.10;99.90
51839;DHT22;37886;53.174;6.368;2023-01-28T07:25:06;1.00;99.90
51839;DHT22;37886;53.174;6.368;2023-01-28T07:27:33;0.90;99.90
51839;DHT22;37886;53.174;6.368;2023-01-28T07:29:58;0.80;99.90
51839;DHT22;37886;53.174;6.368;2023-01-28T07:32:24;0.70;99.90
51839;DHT22;37886;53.174;6.368;2023-01-28T07:34:54;0.70;99.90
51839;DHT22;37886;53.174;6.368;2023-01-28T07:37:20;0.50;99.90
51839;DHT22;37886;53.174;6.368;2023-01-28T07:39:46;0.50;99.90
51839;DHT22;37886;53.174;6.368;2023-01-28T07:42:11;0.50;99.90
51839;DHT22;37886;53.174;6.368;2023-01-28T07:44:38;0.40;99.90
51839;DHT22;37886;53.174;6.368;2023-01-28T07:47:04;0.30;99.90
51839;DHT22;37886;53.174;6.368;2023-01-28T07:49:31;0.30;99.90
51839;DHT22;37886;53.174;6.368;2023-01-28T07:51:57;0.40;99.90
51839;DHT22;37886;53.174;6.368;2023-01-28T07:54:23;0.40;99.90
51839;DHT22;37886;53.174;6.368;2023-01-28T07:56:49;0.40;99.90
51839;DHT22;37886;53.174;6.368;2023-01-28T07:59:14;0.40;99.90
51839;DHT22;37886;53.174;6.368;2023-01-28T08:01:40;0.40;99.90
51839;DHT22;37886;53.174;6.368;2023-01-28T08:04:06;0.40;99.90
51839;DHT22;37886;53.174;6.368;2023-01-28T08:06:31;0.40;99.90
51839;DHT22;37886;53.174;6.368;2023-01-28T08:09:06;0.50;99.90
51839;DHT22;37886;53.174;6.368;2023-01-28T08:11:33;0.60;99.90
51839;DHT22;37886;53.174;6.368;2023-01-28T08:14:00;0.70;99.90
51839;DHT22;37886;53.174;6.368;2023-01-28T08:16:26;0.80;99.90
51839;DHT22;37886;53.174;6.368;2023-01-28T08:18:53;0.90;99.90
51839;DHT22;37886;53.174;6.368;2023-01-28T08:21:18;0.90;99.90
51839;DHT22;37886;53.174;6.368;2023-01-28T08:23:44;1.00;99.90
51839;DHT22;37886;53.174;6.368;2023-01-28T08:26:09;1.10;99.90
51839;DHT22;37886;53.174;6.368;2023-01-28T08:28:35;1.10;99.90
51839;DHT22;37886;53.174;6.368;2023-01-28T08:31:01;1.20;99.90
51839;DHT22;37886;53.174;6.368;2023-01-28T08:33:27;1.30;99.90
51839;DHT22;37886;53.174;6.368;2023-01-28T08:35:53;1.30;99.90
51839;DHT22;37886;53.174;6.368;2023-01-28T08:38:18;1.40;99.90
51839;DHT22;37886;53.174;6.368;2023-01-28T08:40:45;1.40;99.90
51839;DHT22;37886;53.174;6.368;2023-01-28T08:43:11;1.50;99.90
51839;DHT22;37886;53.174;6.368;2023-01-28T08:45:38;1.40;99.90
51839;DHT22;37886;53.174;6.368;2023-01-28T08:48:06;1.50;99.90
51839;DHT22;37886;53.174;6.368;2023-01-28T08:50:35;1.40;99.90
51839;DHT22;37886;53.174;6.368;2023-01-28T08:53:03;1.40;99.90
51839;DHT22;37886;53.174;6.368;2023-01-28T08:55:30;1.40;99.90
51839;DHT22;37886;53.174;6.368;2023-01-28T08:57:56;1.40;99.90
51839;DHT22;37886;53.174;6.368;2023-01-28T09:00:22;1.40;99.90
51839;DHT22;37886;53.174;6.368;2023-01-28T09:02:52;1.50;99.90
51839;DHT22;37886;53.174;6.368;2023-01-28T09:05:18;1.50;99.90
51839;DHT22;37886;53.174;6.368;2023-01-28T09:07:44;1.50;99.90
51839;DHT22;37886;53.174;6.368;2023-01-28T09:10:10;1.60;99.90
51839;DHT22;37886;53.174;6.368;2023-01-28T09:12:36;1.60;99.90
51839;DHT22;37886;53.174;6.368;2023-01-28T09:15:02;1.60;99.90
51839;DHT22;37886;53.174;6.368;2023-01-28T09:17:28;1.70;99.90
51839;DHT22;37886;53.174;6.368;2023-01-28T09:19:54;1.70;99.90
51839;DHT22;37886;53.174;6.368;2023-01-28T09:22:19;1.80;99.90
51839;DHT22;37886;53.174;6.368;2023-01-28T09:24:45;1.80;99.90
51839;DHT22;37886;53.174;6.368;2023-01-28T09:27:11;1.90;99.90
51839;DHT22;37886;53.174;6.368;2023-01-28T09:29:37;2.00;99.90
51839;DHT22;37886;53.174;6.368;2023-01-28T09:32:04;2.00;99.90
51839;DHT22;37886;53.174;6.368;2023-01-28T09:34:33;2.10;99.90
51839;DHT22;37886;53.174;6.368;2023-01-28T09:36:58;2.20;99.90
51839;DHT22;37886;53.174;6.368;2023-01-28T09:39:24;2.30;99.90
51839;DHT22;37886;53.174;6.368;2023-01-28T09:47:33;2.70;99.90
51839;DHT22;37886;53.174;6.368;2023-01-28T09:50:03;2.90;99.90
51839;DHT22;37886;53.174;6.368;2023-01-28T09:52:34;2.90;99.90
51839;DHT22;37886;53.174;6.368;2023-01-28T09:55:05;2.90;99.90
51839;DHT22;37886;53.174;6.368;2023-01-28T09:57:44;3.00;99.90
51839;DHT22;37886;53.174;6.368;2023-01-28T10:00:18;3.20;99.90
51839;DHT22;37886;53.174;6.368;2023-01-28T10:08:30;3.70;99.90
51839;DHT22;37886;53.174;6.368;2023-01-28T10:16:30;3.80;99.90
51839;DHT22;37886;53.174;6.368;2023-01-28T10:19:38;3.70;99.90
51839;DHT22;37886;53.174;6.368;2023-01-28T10:22:06;3.70;99.90
51839;DHT22;37886;53.174;6.368;2023-01-28T10:24:35;3.80;99.90
51839;DHT22;37886;53.174;6.368;2023-01-28T10:27:19;4.10;99.90
51839;DHT22;37886;53.174;6.368;2023-01-28T10:29:46;4.10;99.90
51839;DHT22;37886;53.174;6.368;2023-01-28T10:32:34;4.10;99.90
51839;DHT22;37886;53.174;6.368;2023-01-28T10:35:03;4.20;99.90
51839;DHT22;37886;53.174;6.368;2023-01-28T10:37:36;4.00;99.90
51839;DHT22;37886;53.174;6.368;2023-01-28T10:40:03;3.80;99.90
51839;DHT22;37886;53.174;6.368;2023-01-28T10:42:35;3.70;99.90
51839;DHT22;37886;53.174;6.368;2023-01-28T10:48:33;3.70;99.90
51839;DHT22;37886;53.174;6.368;2023-01-28T10:51:01;3.80;99.90
51839;DHT22;37886;53.174;6.368;2023-01-28T10:53:43;3.80;99.90
51839;DHT22;37886;53.174;6.368;2023-01-28T10:56:25;3.90;99.90
51839;DHT22;37886;53.174;6.368;2023-01-28T10:59:03;4.00;99.90
51839;DHT22;37886;53.174;6.368;2023-01-28T11:01:53;4.00;99.90
51839;DHT22;37886;53.174;6.368;2023-01-28T11:04:23;4.20;99.90
51839;DHT22;37886;53.174;6.368;2023-01-28T11:09:31;4.30;99.90
51839;DHT22;37886;53.174;6.368;2023-01-28T11:11:58;4.30;99.90
51839;DHT22;37886;53.174;6.368;2023-01-28T11:14:34;4.30;99.90
51839;DHT22;37886;53.174;6.368;2023-01-28T11:17:00;4.20;99.90
51839;DHT22;37886;53.174;6.368;2023-01-28T11:19:35;4.20;99.90
51839;DHT22;37886;53.174;6.368;2023-01-28T11:22:03;4.30;99.90
51839;DHT22;37886;53.174;6.368;2023-01-28T11:24:31;4.30;99.90
51839;DHT22;37886;53.174;6.368;2023-01-28T11:27:07;4.20;99.90
51839;DHT22;37886;53.174;6.368;2023-01-28T11:29:38;4.30;99.90
51839;DHT22;37886;53.174;6.368;2023-01-28T11:32:04;4.30;99.90
51839;DHT22;37886;53.174;6.368;2023-01-28T11:34:33;4.20;99.90
51839;DHT22;37886;53.174;6.368;2023-01-28T11:37:13;4.30;99.90
51839;DHT22;37886;53.174;6.368;2023-01-28T11:39:42;4.40;99.90
51839;DHT22;37886;53.174;6.368;2023-01-28T11:42:18;4.50;99.90
51839;DHT22;37886;53.174;6.368;2023-01-28T11:44:45;4.40;99.90
51839;DHT22;37886;53.174;6.368;2023-01-28T11:50:24;4.50;99.90
51839;DHT22;37886;53.174;6.368;2023-01-28T12:04:37;4.50;99.90
51839;DHT22;37886;53.174;6.368;2023-01-28T12:10:11;4.40;99.90
51839;DHT22;37886;53.174;6.368;2023-01-28T12:20:42;3.90;99.90
51839;DHT22;37886;53.174;6.368;2023-01-28T12:23:42;4.20;99.90
51839;DHT22;37886;53.174;6.368;2023-01-28T12:42:51;5.40;99.90
51839;DHT22;37886;53.174;6.368;2023-01-28T12:45:32;5.60;99.90
51839;DHT22;37886;53.174;6.368;2023-01-28T12:48:10;5.90;99.90
51839;DHT22;37886;53.174;6.368;2023-01-28T12:50:45;5.80;99.90
51839;DHT22;37886;53.174;6.368;2023-01-28T12:56:07;5.50;99.90
51839;DHT22;37886;53.174;6.368;2023-01-28T12:59:08;5.80;99.90
51839;DHT22;37886;53.174;6.368;2023-01-28T13:01:46;6.20;99.90
51839;DHT22;37886;53.174;6.368;2023-01-28T13:04:20;6.00;99.90
51839;DHT22;37886;53.174;6.368;2023-01-28T13:07:16;5.50;99.90
51839;DHT22;37886;53.174;6.368;2023-01-28T13:10:02;5.30;99.90
51839;DHT22;37886;53.174;6.368;2023-01-28T13:12:31;5.20;99.90
51839;DHT22;37886;53.174;6.368;2023-01-28T13:14:58;5.70;99.90
51839;DHT22;37886;53.174;6.368;2023-01-28T13:17:30;5.90;99.90
51839;DHT22;37886;53.174;6.368;2023-01-28T13:19:58;6.60;99.90
51839;DHT22;37886;53.174;6.368;2023-01-28T13:22:30;7.00;99.90
51839;DHT22;37886;53.174;6.368;2023-01-28T13:25:10;7.80;99.90
51839;DHT22;37886;53.174;6.368;2023-01-28T13:27:37;7.60;99.90
51839;DHT22;37886;53.174;6.368;2023-01-28T13:30:28;7.20;99.90
51839;DHT22;37886;53.174;6.368;2023-01-28T13:33:04;6.60;99.90
51839;DHT22;37886;53.174;6.368;2023-01-28T13:35:35;6.10;99.90
51839;DHT22;37886;53.174;6.368;2023-01-28T13:38:12;5.80;99.90
51839;DHT22;37886;53.174;6.368;2023-01-28T13:40:40;5.50;99.90
51839;DHT22;37886;53.174;6.368;2023-01-28T13:43:33;5.50;99.90
51839;DHT22;37886;53.174;6.368;2023-01-28T13:46:27;5.50;99.90
51839;DHT22;37886;53.174;6.368;2023-01-28T13:48:55;5.40;99.90
51839;DHT22;37886;53.174;6.368;2023-01-28T13:51:33;5.40;99.90
51839;DHT22;37886;53.174;6.368;2023-01-28T13:54:16;5.30;99.90
51839;DHT22;37886;53.174;6.368;2023-01-28T13:59:45;5.40;99.90
51839;DHT22;37886;53.174;6.368;2023-01-28T14:05:30;5.40;99.90
51839;DHT22;37886;53.174;6.368;2023-01-28T14:13:54;5.30;99.90
51839;DHT22;37886;53.174;6.368;2023-01-28T14:17:10;5.30;99.90
51839;DHT22;37886;53.174;6.368;2023-01-28T14:19:19;5.10;99.90
51839;DHT22;37886;53.174;6.368;2023-01-28T14:21:46;5.20;99.90
51839;DHT22;37886;53.174;6.368;2023-01-28T14:24:15;5.10;99.90
51839;DHT22;37886;53.174;6.368;2023-01-28T14:27:08;5.00;99.90
51839;DHT22;37886;53.174;6.368;2023-01-28T14:29:48;5.00;99.90
51839;DHT22;37886;53.174;6.368;2023-01-28T14:32:21;5.00;99.90
51839;DHT22;37886;53.174;6.368;2023-01-28T14:34:48;5.00;99.90
51839;DHT22;37886;53.174;6.368;2023-01-28T14:37:17;4.90;99.90
51839;DHT22;37886;53.174;6.368;2023-01-28T14:39:55;5.00;99.90
51839;DHT22;37886;53.174;6.368;2023-01-28T14:42:39;4.80;99.90
51839;DHT22;37886;53.174;6.368;2023-01-28T14:51:37;4.80;99.90
51839;DHT22;37886;53.174;6.368;2023-01-28T14:57:01;4.80;99.90
51839;DHT22;37886;53.174;6.368;2023-01-28T14:59:53;4.80;99.90
51839;DHT22;37886;53.174;6.368;2023-01-28T15:02:28;4.70;99.90
51839;DHT22;37886;53.174;6.368;2023-01-28T15:04:54;4.70;99.90
51839;DHT22;37886;53.174;6.368;2023-01-28T15:07:26;4.80;99.90
51839;DHT22;37886;53.174;6.368;2023-01-28T15:12:25;4.70;99.90
51839;DHT22;37886;53.174;6.368;2023-01-28T15:14:51;4.70;99.90
51839;DHT22;37886;53.174;6.368;2023-01-28T15:17:25;4.60;99.90
51839;DHT22;37886;53.174;6.368;2023-01-28T15:19:56;4.60;99.90
51839;DHT22;37886;53.174;6.368;2023-01-28T15:22:26;4.60;99.90
51839;DHT22;37886;53.174;6.368;2023-01-28T15:24:53;4.50;99.90
51839;DHT22;37886;53.174;6.368;2023-01-28T15:27:27;4.50;99.90
51839;DHT22;37886;53.174;6.368;2023-01-28T15:29:58;4.50;99.90
51839;DHT22;37886;53.174;6.368;2023-01-28T15:32:27;4.50;99.90
51839;DHT22;37886;53.174;6.368;2023-01-28T15:34:53;4.50;99.90
51839;DHT22;37886;53.174;6.368;2023-01-28T15:37:19;4.50;99.90
51839;DHT22;37886;53.174;6.368;2023-01-28T15:39:45;4.40;99.90
51839;DHT22;37886;53.174;6.368;2023-01-28T15:42:20;4.40;99.90
51839;DHT22;37886;53.174;6.368;2023-01-28T15:44:48;4.40;99.90
51839;DHT22;37886;53.174;6.368;2023-01-28T15:47:15;4.40;99.90
51839;DHT22;37886;53.174;6.368;2023-01-28T15:49:47;4.40;99.90
51839;DHT22;37886;53.174;6.368;2023-01-28T15:52:14;4.30;99.90
51839;DHT22;37886;53.174;6.368;2023-01-28T15:54:43;4.20;99.90
51839;DHT22;37886;53.174;6.368;2023-01-28T15:57:21;4.20;99.90
51839;DHT22;37886;53.174;6.368;2023-01-28T15:59:47;4.20;99.90
51839;DHT22;37886;53.174;6.368;2023-01-28T16:02:21;4.20;99.90
51839;DHT22;37886;53.174;6.368;2023-01-28T16:04:57;4.20;99.90
51839;DHT22;37886;53.174;6.368;2023-01-28T16:07:24;4.20;99.90
51839;DHT22;37886;53.174;6.368;2023-01-28T16:09:52;4.10;99.90
51839;DHT22;37886;53.174;6.368;2023-01-28T16:12:19;4.00;99.90
51839;DHT22;37886;53.174;6.368;2023-01-28T16:14:53;4.00;99.90
51839;DHT22;37886;53.174;6.368;2023-01-28T16:17:29;3.90;99.90
51839;DHT22;37886;53.174;6.368;2023-01-28T16:20:04;3.90;99.90
51839;DHT22;37886;53.174;6.368;2023-01-28T16:22:40;3.90;99.90
51839;DHT22;37886;53.174;6.368;2023-01-28T16:27:45;3.90;99.90
51839;DHT22;37886;53.174;6.368;2023-01-28T16:30:11;3.90;99.90
51839;DHT22;37886;53.174;6.368;2023-01-28T16:32:38;3.90;99.90
51839;DHT22;37886;53.174;6.368;2023-01-28T16:35:20;3.90;99.90
51839;DHT22;37886;53.174;6.368;2023-01-28T16:37:47;3.90;99.90
51839;DHT22;37886;53.174;6.368;2023-01-28T16:40:16;3.90;99.90
51839;DHT22;37886;53.174;6.368;2023-01-28T16:42:42;3.90;99.90
51839;DHT22;37886;53.174;6.368;2023-01-28T16:45:16;3.80;99.90
51839;DHT22;37886;53.174;6.368;2023-01-28T16:47:42;3.80;99.90
51839;DHT22;37886;53.174;6.368;2023-01-28T16:50:10;3.80;99.90
51839;DHT22;37886;53.174;6.368;2023-01-28T16:52:36;3.80;99.90
51839;DHT22;37886;53.174;6.368;2023-01-28T16:55:03;3.80;99.90
51839;DHT22;37886;53.174;6.368;2023-01-28T16:57:30;3.80;99.90
51839;DHT22;37886;53.174;6.368;2023-01-28T16:59:57;3.90;99.90
51839;DHT22;37886;53.174;6.368;2023-01-28T17:02:23;3.90;99.90
51839;DHT22;37886;53.174;6.368;2023-01-28T17:04:48;3.90;99.90
51839;DHT22;37886;53.174;6.368;2023-01-28T17:07:14;3.90;99.90
51839;DHT22;37886;53.174;6.368;2023-01-28T17:09:40;3.90;99.90
51839;DHT22;37886;53.174;6.368;2023-01-28T17:12:06;4.00;99.90
51839;DHT22;37886;53.174;6.368;2023-01-28T17:14:33;3.90;99.90
51839;DHT22;37886;53.174;6.368;2023-01-28T17:16:58;4.00;99.90
51839;DHT22;37886;53.174;6.368;2023-01-28T17:19:24;4.00;99.90
51839;DHT22;37886;53.174;6.368;2023-01-28T17:21:50;4.10;99.90
51839;DHT22;37886;53.174;6.368;2023-01-28T17:24:15;4.00;99.90
51839;DHT22;37886;53.174;6.368;2023-01-28T17:26:41;4.00;99.90
51839;DHT22;37886;53.174;6.368;2023-01-28T17:29:07;4.00;99.90
51839;DHT22;37886;53.174;6.368;2023-01-28T17:31:33;4.00;99.90
51839;DHT22;37886;53.174;6.368;2023-01-28T17:33:59;4.00;99.90
51839;DHT22;37886;53.174;6.368;2023-01-28T17:36:27;4.00;99.90
51839;DHT22;37886;53.174;6.368;2023-01-28T17:38:53;4.00;99.90
51839;DHT22;37886;53.174;6.368;2023-01-28T17:41:20;4.00;99.90
51839;DHT22;37886;53.174;6.368;2023-01-28T17:43:53;4.10;99.90
51839;DHT22;37886;53.174;6.368;2023-01-28T17:46:20;4.10;99.90
51839;DHT22;37886;53.174;6.368;2023-01-28T17:48:46;4.00;99.90
51839;DHT22;37886;53.174;6.368;2023-01-28T17:51:12;3.90;99.90